Flight Briefing for CPX787

Departure Arrival
Chek Lap Kok International (VHHH)
Click to view FAA NOTAMS
Kingsford Smith International Airport (YSSY)
Click to view FAA NOTAMS
Departure Time Arrival Time
N/A N/A
Aircraft Distance
MD-11SF 3997nm
Departure METAR Arrival METAR
VHHH 152030Z 10004KT 9999 FEW018 SCT025 21/18 Q1018 NOSIG YSSY 152030Z 31004KT 9999 FEW030 SCT300 21/14 Q1021 NOSIG
Suggested Route
OCEAN V5 SABNO A583 IBOBI A583 ZAM A461 BUTPA A461 DN J251 TN T74 ENPAG H319 TARAL Y59 RIVET


View recent IFR Routes data
Notes



Charts and Procedures

Charts for VHHH
No chart available
Charts for YSSY
No chart available

Ventusky Weather